Airfield :
LOGIN :

Register | Disclaimer

   EN    FR    IT 

 










Legend :    VFR   Marginal VFR   IFR   Intensive IFR   Very Intensive IFR
Visi :
Ceiling :
>= 8 km
>= 3000ft
5 to 8 km
1000 to 3000 ft
1500m to 5 km
500 to 1000 ft
800 to 1500m
200 to 500 ft
< 800m
< 200 ft
Symbols :   Thunderstorms  Fog  Heavy snow  Heavy precipitations  Wind > 20 kt
SIGMETs :     Misc.  Thunderstorms  Icing  Turbulence  Mountain Waves  Volcanic Ashes







- Airport Elevation : 1708 ft
- IATA code : SJJ


LQSA - Sarajevo

CURRENT METAR :
  • 180700Z 00000KT 9999 FEW003 07/07 Q1023 TEMPO 3000

EXPIRED METARs :
  • 180630Z 00000KT 9999 FEW003 06/06 Q1023 TEMPO 3000
  • 180600Z 00000KT 9999 FEW003 05/05 Q1023 BECMG 1500 BR
  • 180530Z VRB01KT 8000 1000NW R12/0750D BCFG FEW003 05/05 Q1023 BECMG 1500 BR
  • 180500Z VRB02KT 8000 2000NW FEW003 05/04 Q1023 BECMG 1500 BR
  • 180430Z VRB01KT 8000 FEW002 05/05 Q1023 BECMG 1500 BR

TAF TAF LQSA
Valid from the 18 at 06:00 until the 19 at 06:00 UTC


180500Z 1806/1906 VRB02KT CAVOK TX23/1813Z TN04/1904Z
TEMPO 1806/1810 0600 FG BKN003
TEMPO 1901/1906 0300 FG BKN001
No reported NOTAMs for that airfield.



MET'MAP, your aeronautical weather chart ! - Copyright ORBIFLY December 2007 - Disclaimer

ORBIFLY MET'MAP TEAM :

Programming & Development : Alexandra Zaïnal
Concept & Development : Baudouin d'Aumeries
Co-Development & Prog : Marc-Olivier Méhu
Technical & hardware support : Manuel Goepfert

Contact : metmap@orbifly.com




SOURCES & CREDITS :

   NOAA